East Atlantic Beach, New York
Current Conditions -  °F | °C
As of 9:28 PM on Monday 22 Dec 2014 (Local Time) from KJFK Reporting Station
Overcast Overcast  
Wind Chill: 42°   Ceiling: 800
Heat Index: 46°   Visibility: 10mi
Dew Point: 41°   Wind: 8mph
Humidity: 81%   Direction: 70°ENE
Pressure: 30.21"   Gusts: NA
Location:  40.5892°N, 73.6427°W
Report Text: KJFK 230228Z 07007KT 10SM BKN008 OVC013 08/05 A3021 RMK AO2 RAE00 P0000 $
Loading
Personal Weather Stations






























Interactive Weather Map New forecast layout! Learn more

10-Day Weather Forecast

Advertisements
Track Severe Weather on mobile